19.9°F
Current conditions from King Hill
Updated every 5 minutes
 
  Friday November 21, 2014

Station Historical Data
Daily Summary for December 10, 2011 Units:  Both    English   Metric
« Previous Day
Next Day »
Daily Weekly Monthly Yearly Custom
  High: Low: Average:
Temperature: 35.0 °F /  1.7 °C 21.6 °F /  -5.8 °C 27.7 °F /  -2.4 °C
Dew Point: 28.9 °F /  -1.7 °C 10.8 °F /  -11.8 °C 18.4 °F /  -7.6 °C
Humidity: 88% 47% 68%
Wind Speed: 9.0mph /  14.5km/h - 3.7mph /  6km/h
Wind Gust: 17.0mph /  27.4km/h - -
Wind- - WNW
Pressure: 30.38 in /  1028.7 hPa 30.08 in /  1018.5 hPa -
Precipitation: 0.00 in /  0 mm    
Historical Graphs
 
 
Tabular Data for December 10, 2011
Time Temperature Dew Point Pressure Wind Wind Speed Wind Gust Humidity Daily Rainfall
00:04 34.8 °F /  1.6 °C 27.4 °F /  -2.6 °C 30.10in /  1019.2hPa SSW 4.0mph /  6.4km/h 13.0mph /  20.9km/h 74% 0.00in /  0mm
00:09 34.8 °F /  1.6 °C 27.7 °F /  -2.4 °C 30.10in /  1019.2hPa SSW 3.0mph /  4.8km/h 10.0mph /  16.1km/h 75% 0.00in /  0mm
00:14 34.8 °F /  1.6 °C 27.7 °F /  -2.4 °C 30.10in /  1019.2hPa SSW 5.0mph /  8km/h 11.0mph /  17.7km/h 75% 0.00in /  0mm
00:19 34.8 °F /  1.6 °C 27.4 °F /  -2.6 °C 30.10in /  1019.2hPa SSW 7.0mph /  11.3km/h 12.0mph /  19.3km/h 74% 0.00in /  0mm
00:24 34.9 °F /  1.6 °C 27.5 °F /  -2.5 °C 30.09in /  1018.8hPa SSW 7.0mph /  11.3km/h 12.0mph /  19.3km/h 74% 0.00in /  0mm
00:29 35.0 °F /  1.7 °C 27.6 °F /  -2.4 °C 30.09in /  1018.8hPa SW 7.0mph /  11.3km/h 12.0mph /  19.3km/h 74% 0.00in /  0mm
00:34 35.0 °F /  1.7 °C 27.6 °F /  -2.4 °C 30.09in /  1018.8hPa SSW 6.0mph /  9.7km/h 12.0mph /  19.3km/h 74% 0.00in /  0mm
00:39 34.9 °F /  1.6 °C 27.5 °F /  -2.5 °C 30.09in /  1018.8hPa SSW 4.0mph /  6.4km/h 11.0mph /  17.7km/h 74% 0.00in /  0mm
00:44 34.8 °F /  1.6 °C 27.4 °F /  -2.6 °C 30.09in /  1018.8hPa SSW 6.0mph /  9.7km/h 11.0mph /  17.7km/h 74% 0.00in /  0mm
00:49 34.9 °F /  1.6 °C 27.5 °F /  -2.5 °C 30.09in /  1018.8hPa SSW 4.0mph /  6.4km/h 11.0mph /  17.7km/h 74% 0.00in /  0mm
00:54 34.8 °F /  1.6 °C 27.4 °F /  -2.6 °C 30.08in /  1018.5hPa SSW 4.0mph /  6.4km/h 11.0mph /  17.7km/h 74% 0.00in /  0mm
00:59 34.8 °F /  1.6 °C 27.4 °F /  -2.6 °C 30.09in /  1018.8hPa SW 6.0mph /  9.7km/h 12.0mph /  19.3km/h 74% 0.00in /  0mm
01:04 34.9 °F /  1.6 °C 27.5 °F /  -2.5 °C 30.09in /  1018.8hPa SSW 7.0mph /  11.3km/h 14.0mph /  22.5km/h 74% 0.00in /  0mm
01:09 34.9 °F /  1.6 °C 27.5 °F /  -2.5 °C 30.09in /  1018.8hPa SSW 7.0mph /  11.3km/h 14.0mph /  22.5km/h 74% 0.00in /  0mm
01:14 34.9 °F /  1.6 °C 27.5 °F /  -2.5 °C 30.09in /  1018.8hPa SW 6.0mph /  9.7km/h 12.0mph /  19.3km/h 74% 0.00in /  0mm
01:19 34.9 °F /  1.6 °C 27.5 °F /  -2.5 °C 30.09in /  1018.8hPa SW 6.0mph /  9.7km/h 13.0mph /  20.9km/h 74% 0.00in /  0mm
01:24 34.9 °F /  1.6 °C 27.5 °F /  -2.5 °C 30.09in /  1018.8hPa SW 5.0mph /  8km/h 13.0mph /  20.9km/h 74% 0.00in /  0mm
01:29 35.0 °F /  1.7 °C 27.6 °F /  -2.4 °C 30.09in /  1018.8hPa SSW 4.0mph /  6.4km/h 12.0mph /  19.3km/h 74% 0.00in /  0mm
01:34 35.0 °F /  1.7 °C 27.6 °F /  -2.4 °C 30.10in /  1019.2hPa SSW 6.0mph /  9.7km/h 11.0mph /  17.7km/h 74% 0.00in /  0mm
01:39 35.0 °F /  1.7 °C 27.6 °F /  -2.4 °C 30.09in /  1018.8hPa SW 6.0mph /  9.7km/h 11.0mph /  17.7km/h 74% 0.00in /  0mm
01:49 34.8 °F /  1.6 °C 27.7 °F /  -2.4 °C 30.10in /  1019.2hPa WSW 3.0mph /  4.8km/h 9.0mph /  14.5km/h 75% 0.00in /  0mm
01:54 34.8 °F /  1.6 °C 28.0 °F /  -2.2 °C 30.10in /  1019.2hPa WSW 4.0mph /  6.4km/h 8.0mph /  12.9km/h 76% 0.00in /  0mm
01:59 34.6 °F /  1.4 °C 27.8 °F /  -2.3 °C 30.10in /  1019.2hPa West 5.0mph /  8km/h 11.0mph /  17.7km/h 76% 0.00in /  0mm
02:04 34.4 °F /  1.3 °C 27.9 °F /  -2.3 °C 30.11in /  1019.5hPa West 5.0mph /  8km/h 11.0mph /  17.7km/h 77% 0.00in /  0mm
02:09 34.4 °F /  1.3 °C 28.3 °F /  -2.1 °C 30.11in /  1019.5hPa West 4.0mph /  6.4km/h 9.0mph /  14.5km/h 78% 0.00in /  0mm
02:14 34.1 °F /  1.2 °C 28.3 °F /  -2.1 °C 30.11in /  1019.5hPa WNW 4.0mph /  6.4km/h 8.0mph /  12.9km/h 79% 0.00in /  0mm
02:19 33.6 °F /  0.9 °C 28.4 °F /  -2 °C 30.12in /  1019.9hPa WNW 4.0mph /  6.4km/h 8.0mph /  12.9km/h 81% 0.00in /  0mm
02:24 33.2 °F /  0.7 °C 28.6 °F /  -1.9 °C 30.12in /  1019.9hPa WNW 4.0mph /  6.4km/h 9.0mph /  14.5km/h 83% 0.00in /  0mm
02:29 32.9 °F /  0.5 °C 28.6 °F /  -1.9 °C 30.12in /  1019.9hPa WNW 3.0mph /  4.8km/h 9.0mph /  14.5km/h 84% 0.00in /  0mm
02:34 32.6 °F /  0.3 °C 28.6 °F /  -1.9 °C 30.12in /  1019.9hPa Calm   6.0mph /  9.7km/h 85% 0.00in /  0mm
02:39 32.5 °F /  0.3 °C 28.8 °F /  -1.8 °C 30.12in /  1019.9hPa WNW 2.0mph /  3.2km/h 6.0mph /  9.7km/h 86% 0.00in /  0mm
02:44 32.4 °F /  0.2 °C 28.7 °F /  -1.8 °C 30.12in /  1019.9hPa WNW 2.0mph /  3.2km/h 4.0mph /  6.4km/h 86% 0.00in /  0mm
02:49 32.3 °F /  0.2 °C 28.6 °F /  -1.9 °C 30.13in /  1020.2hPa WNW 2.0mph /  3.2km/h 4.0mph /  6.4km/h 86% 0.00in /  0mm
02:54 32.2 °F /  0.1 °C 28.8 °F /  -1.8 °C 30.13in /  1020.2hPa WNW 2.0mph /  3.2km/h 4.0mph /  6.4km/h 87% 0.00in /  0mm
02:59 32.1 °F /  0.1 °C 28.7 °F /  -1.8 °C 30.13in /  1020.2hPa Calm   4.0mph /  6.4km/h 87% 0.00in /  0mm
03:04 32.0 °F /  0 °C 28.6 °F /  -1.9 °C 30.12in /  1019.9hPa Calm   2.0mph /  3.2km/h 87% 0.00in /  0mm
03:09 32.0 °F /  0 °C 28.9 °F /  -1.7 °C 30.13in /  1020.2hPa Calm   3.0mph /  4.8km/h 88% 0.00in /  0mm
03:14 31.9 °F /  -0.1 °C 28.8 °F /  -1.8 °C 30.13in /  1020.2hPa WNW 1.0mph /  1.6km/h 3.0mph /  4.8km/h 88% 0.00in /  0mm
03:19 31.9 °F /  -0.1 °C 28.8 °F /  -1.8 °C 30.12in /  1019.9hPa WNW 1.0mph /  1.6km/h 4.0mph /  6.4km/h 88% 0.00in /  0mm
03:24 31.9 °F /  -0.1 °C 28.8 °F /  -1.8 °C 30.12in /  1019.9hPa Calm   4.0mph /  6.4km/h 88% 0.00in /  0mm
03:29 31.9 °F /  -0.1 °C 28.8 °F /  -1.8 °C 30.12in /  1019.9hPa WNW 1.0mph /  1.6km/h 3.0mph /  4.8km/h 88% 0.00in /  0mm
03:34 31.9 °F /  -0.1 °C 28.5 °F /  -1.9 °C 30.12in /  1019.9hPa Calm   3.0mph /  4.8km/h 87% 0.00in /  0mm
03:39 31.9 °F /  -0.1 °C 28.5 °F /  -1.9 °C 30.12in /  1019.9hPa Calm   2.0mph /  3.2km/h 87% 0.00in /  0mm
03:44 31.8 °F /  -0.1 °C 28.4 °F /  -2 °C 30.12in /  1019.9hPa Calm   2.0mph /  3.2km/h 87% 0.00in /  0mm
03:49 31.8 °F /  -0.1 °C 28.4 °F /  -2 °C 30.12in /  1019.9hPa Calm   2.0mph /  3.2km/h 87% 0.00in /  0mm
03:54 31.8 °F /  -0.1 °C 28.4 °F /  -2 °C 30.13in /  1020.2hPa WNW 2.0mph /  3.2km/h 3.0mph /  4.8km/h 87% 0.00in /  0mm
03:59 31.7 °F /  -0.2 °C 28.6 °F /  -1.9 °C 30.13in /  1020.2hPa WNW 1.0mph /  1.6km/h 3.0mph /  4.8km/h 88% 0.00in /  0mm
04:04 31.7 °F /  -0.2 °C 28.6 °F /  -1.9 °C 30.13in /  1020.2hPa WNW 1.0mph /  1.6km/h 3.0mph /  4.8km/h 88% 0.00in /  0mm
04:09 31.7 °F /  -0.2 °C 28.6 °F /  -1.9 °C 30.13in /  1020.2hPa NNW 4.0mph /  6.4km/h 8.0mph /  12.9km/h 88% 0.00in /  0mm
04:14 30.9 °F /  -0.6 °C 27.5 °F /  -2.5 °C 30.14in /  1020.5hPa North 3.0mph /  4.8km/h 8.0mph /  12.9km/h 87% 0.00in /  0mm
04:19 29.8 °F /  -1.2 °C 26.1 °F /  -3.3 °C 30.14in /  1020.5hPa NNW 3.0mph /  4.8km/h 8.0mph /  12.9km/h 86% 0.00in /  0mm
04:24 29.1 °F /  -1.6 °C 25.4 °F /  -3.7 °C 30.14in /  1020.5hPa NNW 3.0mph /  4.8km/h 8.0mph /  12.9km/h 86% 0.00in /  0mm
04:29 28.5 °F /  -1.9 °C 24.8 °F /  -4 °C 30.15in /  1020.9hPa NNW 2.0mph /  3.2km/h 11.0mph /  17.7km/h 86% 0.00in /  0mm
04:34 28.0 °F /  -2.2 °C 24.4 °F /  -4.2 °C 30.15in /  1020.9hPa NW 7.0mph /  11.3km/h 14.0mph /  22.5km/h 86% 0.00in /  0mm
04:39 27.5 °F /  -2.5 °C 23.9 °F /  -4.5 °C 30.15in /  1020.9hPa NW 6.0mph /  9.7km/h 14.0mph /  22.5km/h 86% 0.00in /  0mm
04:44 27.2 °F /  -2.7 °C 23.6 °F /  -4.7 °C 30.15in /  1020.9hPa NNW 7.0mph /  11.3km/h 13.0mph /  20.9km/h 86% 0.00in /  0mm
04:49 27.0 °F /  -2.8 °C 23.4 °F /  -4.8 °C 30.15in /  1020.9hPa NNW 7.0mph /  11.3km/h 15.0mph /  24.1km/h 86% 0.00in /  0mm
04:54 26.9 °F /  -2.8 °C 23.3 °F /  -4.8 °C 30.15in /  1020.9hPa NW 5.0mph /  8km/h 15.0mph /  24.1km/h 86% 0.00in /  0mm
04:59 26.8 °F /  -2.9 °C 23.2 °F /  -4.9 °C 30.16in /  1021.2hPa NNW 8.0mph /  12.9km/h 16.0mph /  25.7km/h 86% 0.00in /  0mm
05:04 26.7 °F /  -2.9 °C 23.1 °F /  -4.9 °C 30.16in /  1021.2hPa NNW 8.0mph /  12.9km/h 17.0mph /  27.4km/h 86% 0.00in /  0mm
05:09 26.7 °F /  -2.9 °C 23.1 °F /  -4.9 °C 30.16in /  1021.2hPa NNW 5.0mph /  8km/h 17.0mph /  27.4km/h 86% 0.00in /  0mm
05:14 26.6 °F /  -3 °C 22.7 °F /  -5.2 °C 30.16in /  1021.2hPa NNW 4.0mph /  6.4km/h 15.0mph /  24.1km/h 85% 0.00in /  0mm
05:19 26.4 °F /  -3.1 °C 22.8 °F /  -5.1 °C 30.16in /  1021.2hPa NNW 6.0mph /  9.7km/h 15.0mph /  24.1km/h 86% 0.00in /  0mm
05:24 26.4 °F /  -3.1 °C 22.8 °F /  -5.1 °C 30.17in /  1021.6hPa NNW 4.0mph /  6.4km/h 13.0mph /  20.9km/h 86% 0.00in /  0mm
05:29 26.3 °F /  -3.2 °C 22.7 °F /  -5.2 °C 30.17in /  1021.6hPa NW 4.0mph /  6.4km/h 10.0mph /  16.1km/h 86% 0.00in /  0mm
05:34 26.3 °F /  -3.2 °C 22.7 °F /  -5.2 °C 30.17in /  1021.6hPa NNW 3.0mph /  4.8km/h 9.0mph /  14.5km/h 86% 0.00in /  0mm
05:39 26.3 °F /  -3.2 °C 22.7 °F /  -5.2 °C 30.17in /  1021.6hPa NNW 4.0mph /  6.4km/h 10.0mph /  16.1km/h 86% 0.00in /  0mm
05:44 26.2 °F /  -3.2 °C 22.6 °F /  -5.2 °C 30.17in /  1021.6hPa NW 4.0mph /  6.4km/h 10.0mph /  16.1km/h 86% 0.00in /  0mm
05:49 26.2 °F /  -3.2 °C 22.6 °F /  -5.2 °C 30.18in /  1021.9hPa NW 3.0mph /  4.8km/h 10.0mph /  16.1km/h 86% 0.00in /  0mm
05:54 26.2 °F /  -3.2 °C 22.6 °F /  -5.2 °C 30.19in /  1022.2hPa NNW 5.0mph /  8km/h 12.0mph /  19.3km/h 86% 0.00in /  0mm
05:59 26.3 °F /  -3.2 °C 22.7 °F /  -5.2 °C 30.19in /  1022.2hPa NW 5.0mph /  8km/h 12.0mph /  19.3km/h 86% 0.00in /  0mm
06:04 26.3 °F /  -3.2 °C 22.7 °F /  -5.2 °C 30.20in /  1022.6hPa NW 4.0mph /  6.4km/h 8.0mph /  12.9km/h 86% 0.00in /  0mm
06:09 26.3 °F /  -3.2 °C 22.7 °F /  -5.2 °C 30.20in /  1022.6hPa NW 5.0mph /  8km/h 10.0mph /  16.1km/h 86% 0.00in /  0mm
06:14 26.2 °F /  -3.2 °C 22.6 °F /  -5.2 °C 30.20in /  1022.6hPa NW 6.0mph /  9.7km/h 11.0mph /  17.7km/h 86% 0.00in /  0mm
06:19 26.0 °F /  -3.3 °C 22.1 °F /  -5.5 °C 30.20in /  1022.6hPa NW 2.0mph /  3.2km/h 11.0mph /  17.7km/h 85% 0.00in /  0mm
06:24 25.8 °F /  -3.4 °C 21.6 °F /  -5.8 °C 30.20in /  1022.6hPa NW 4.0mph /  6.4km/h 8.0mph /  12.9km/h 84% 0.00in /  0mm
06:29 25.7 °F /  -3.5 °C 21.5 °F /  -5.8 °C 30.20in /  1022.6hPa NW 1.0mph /  1.6km/h 8.0mph /  12.9km/h 84% 0.00in /  0mm
06:34 25.6 °F /  -3.6 °C 21.4 °F /  -5.9 °C 30.21in /  1022.9hPa NW 4.0mph /  6.4km/h 11.0mph /  17.7km/h 84% 0.00in /  0mm
06:39 25.6 °F /  -3.6 °C 21.2 °F /  -6 °C 30.21in /  1022.9hPa NNW 3.0mph /  4.8km/h 11.0mph /  17.7km/h 83% 0.00in /  0mm
06:44 25.6 °F /  -3.6 °C 21.4 °F /  -5.9 °C 30.21in /  1022.9hPa NW 3.0mph /  4.8km/h 8.0mph /  12.9km/h 84% 0.00in /  0mm
06:49 25.6 °F /  -3.6 °C 21.2 °F /  -6 °C 30.22in /  1023.2hPa NNW 6.0mph /  9.7km/h 12.0mph /  19.3km/h 83% 0.00in /  0mm
06:54 25.6 °F /  -3.6 °C 21.2 °F /  -6 °C 30.22in /  1023.2hPa NW 2.0mph /  3.2km/h 12.0mph /  19.3km/h 83% 0.00in /  0mm
06:59 25.6 °F /  -3.6 °C 21.2 °F /  -6 °C 30.22in /  1023.2hPa NNW 5.0mph /  8km/h 10.0mph /  16.1km/h 83% 0.00in /  0mm
07:04 25.6 °F /  -3.6 °C 20.9 °F /  -6.2 °C 30.22in /  1023.2hPa NW 2.0mph /  3.2km/h 10.0mph /  16.1km/h 82% 0.00in /  0mm
07:09 25.6 °F /  -3.6 °C 20.9 °F /  -6.2 °C 30.22in /  1023.2hPa NW 2.0mph /  3.2km/h 7.0mph /  11.3km/h 82% 0.00in /  0mm
07:14 25.7 °F /  -3.5 °C 21.0 °F /  -6.1 °C 30.22in /  1023.2hPa Calm   11.0mph /  17.7km/h 82% 0.00in /  0mm
07:19 25.7 °F /  -3.5 °C 21.0 °F /  -6.1 °C 30.22in /  1023.2hPa NNW 4.0mph /  6.4km/h 11.0mph /  17.7km/h 82% 0.00in /  0mm
07:24 25.7 °F /  -3.5 °C 20.7 °F /  -6.3 °C 30.22in /  1023.2hPa NNW 2.0mph /  3.2km/h 7.0mph /  11.3km/h 81% 0.00in /  0mm
07:29 25.8 °F /  -3.4 °C 20.5 °F /  -6.4 °C 30.23in /  1023.6hPa NNW 2.0mph /  3.2km/h 5.0mph /  8km/h 80% 0.00in /  0mm
07:34 25.8 °F /  -3.4 °C 20.2 °F /  -6.6 °C 30.23in /  1023.6hPa NW 1.0mph /  1.6km/h 8.0mph /  12.9km/h 79% 0.00in /  0mm
07:39 25.8 °F /  -3.4 °C 20.2 °F /  -6.6 °C 30.23in /  1023.6hPa NNW 4.0mph /  6.4km/h 9.0mph /  14.5km/h 79% 0.00in /  0mm
07:44 25.9 °F /  -3.4 °C 20.3 °F /  -6.5 °C 30.23in /  1023.6hPa NW 2.0mph /  3.2km/h 9.0mph /  14.5km/h 79% 0.00in /  0mm
07:49 25.9 °F /  -3.4 °C 20.3 °F /  -6.5 °C 30.23in /  1023.6hPa Calm   9.0mph /  14.5km/h 79% 0.00in /  0mm
07:54 26.0 °F /  -3.3 °C 20.4 °F /  -6.4 °C 30.23in /  1023.6hPa WNW 3.0mph /  4.8km/h 7.0mph /  11.3km/h 79% 0.00in /  0mm
07:59 26.1 °F /  -3.3 °C 20.5 °F /  -6.4 °C 30.23in /  1023.6hPa NW 2.0mph /  3.2km/h 8.0mph /  12.9km/h 79% 0.00in /  0mm
08:04 26.0 °F /  -3.3 °C 20.4 °F /  -6.4 °C 30.24in /  1023.9hPa NW 1.0mph /  1.6km/h 8.0mph /  12.9km/h 79% 0.00in /  0mm
08:09 25.9 °F /  -3.4 °C 20.0 °F /  -6.7 °C 30.23in /  1023.6hPa NW 4.0mph /  6.4km/h 8.0mph /  12.9km/h 78% 0.00in /  0mm
08:14 25.7 °F /  -3.5 °C 19.8 °F /  -6.8 °C 30.24in /  1023.9hPa Calm   8.0mph /  12.9km/h 78% 0.00in /  0mm
08:19 25.4 °F /  -3.7 °C 19.5 °F /  -6.9 °C 30.24in /  1023.9hPa Calm   3.0mph /  4.8km/h 78% 0.00in /  0mm
08:24 25.2 °F /  -3.8 °C 19.3 °F /  -7.1 °C 30.24in /  1023.9hPa Calm   3.0mph /  4.8km/h 78% 0.00in /  0mm
08:29 25.0 °F /  -3.9 °C 18.8 °F /  -7.3 °C 30.24in /  1023.9hPa Calm   3.0mph /  4.8km/h 77% 0.00in /  0mm
08:34 24.8 °F /  -4 °C 18.6 °F /  -7.4 °C 30.25in /  1024.3hPa Calm   3.0mph /  4.8km/h 77% 0.00in /  0mm
08:39 24.6 °F /  -4.1 °C 18.7 °F /  -7.4 °C 30.25in /  1024.3hPa NW 1.0mph /  1.6km/h 4.0mph /  6.4km/h 78% 0.00in /  0mm
08:44 24.6 °F /  -4.1 °C 18.7 °F /  -7.4 °C 30.25in /  1024.3hPa Calm   4.0mph /  6.4km/h 78% 0.00in /  0mm
08:49 24.7 °F /  -4.1 °C 18.8 °F /  -7.3 °C 30.25in /  1024.3hPa Calm   3.0mph /  4.8km/h 78% 0.00in /  0mm
08:54 24.6 °F /  -4.1 °C 18.4 °F /  -7.6 °C 30.25in /  1024.3hPa Calm     77% 0.00in /  0mm
08:59 24.5 °F /  -4.2 °C 18.6 °F /  -7.4 °C 30.26in /  1024.6hPa Calm   1.0mph /  1.6km/h 78% 0.00in /  0mm
09:04 24.6 °F /  -4.1 °C 18.7 °F /  -7.4 °C 30.26in /  1024.6hPa Calm   1.0mph /  1.6km/h 78% 0.00in /  0mm
09:09 24.8 °F /  -4 °C 18.9 °F /  -7.3 °C 30.26in /  1024.6hPa NW 4.0mph /  6.4km/h 6.0mph /  9.7km/h 78% 0.00in /  0mm
09:14 25.7 °F /  -3.5 °C 19.5 °F /  -6.9 °C 30.26in /  1024.6hPa NW 1.0mph /  1.6km/h 6.0mph /  9.7km/h 77% 0.00in /  0mm
09:19 26.5 °F /  -3.1 °C 20.0 °F /  -6.7 °C 30.26in /  1024.6hPa NW 1.0mph /  1.6km/h 7.0mph /  11.3km/h 76% 0.00in /  0mm
09:24 27.3 °F /  -2.6 °C 19.8 °F /  -6.8 °C 30.26in /  1024.6hPa NNW 2.0mph /  3.2km/h 7.0mph /  11.3km/h 73% 0.00in /  0mm
09:29 27.8 °F /  -2.3 °C 19.6 °F /  -6.9 °C 30.26in /  1024.6hPa NNW 3.0mph /  4.8km/h 10.0mph /  16.1km/h 71% 0.00in /  0mm
09:34 28.1 °F /  -2.2 °C 18.9 °F /  -7.3 °C 30.26in /  1024.6hPa NW 4.0mph /  6.4km/h 10.0mph /  16.1km/h 68% 0.00in /  0mm
09:39 27.8 °F /  -2.3 °C 18.3 °F /  -7.6 °C 30.26in /  1024.6hPa NW 2.0mph /  3.2km/h 10.0mph /  16.1km/h 67% 0.00in /  0mm
09:44 27.1 °F /  -2.7 °C 17.6 °F /  -8 °C 30.26in /  1024.6hPa WNW 4.0mph /  6.4km/h 8.0mph /  12.9km/h 67% 0.00in /  0mm
09:49 26.6 °F /  -3 °C 17.5 °F /  -8.1 °C 30.26in /  1024.6hPa WNW 2.0mph /  3.2km/h 8.0mph /  12.9km/h 68% 0.00in /  0mm
09:54 26.8 °F /  -2.9 °C 18.0 °F /  -7.8 °C 30.25in /  1024.3hPa NW 2.0mph /  3.2km/h 9.0mph /  14.5km/h 69% 0.00in /  0mm
09:59 27.4 °F /  -2.6 °C 17.9 °F /  -7.8 °C 30.26in /  1024.6hPa NNW 3.0mph /  4.8km/h 9.0mph /  14.5km/h 67% 0.00in /  0mm
10:04 28.1 °F /  -2.2 °C 18.6 °F /  -7.4 °C 30.26in /  1024.6hPa NNW 1.0mph /  1.6km/h 8.0mph /  12.9km/h 67% 0.00in /  0mm
10:09 28.7 °F /  -1.8 °C 18.4 °F /  -7.6 °C 30.26in /  1024.6hPa NNW 2.0mph /  3.2km/h 8.0mph /  12.9km/h 65% 0.00in /  0mm
10:14 28.5 °F /  -1.9 °C 18.2 °F /  -7.7 °C 30.26in /  1024.6hPa Calm   9.0mph /  14.5km/h 65% 0.00in /  0mm
10:19 28.2 °F /  -2.1 °C 17.6 °F /  -8 °C 30.26in /  1024.6hPa NW 4.0mph /  6.4km/h 10.0mph /  16.1km/h 64% 0.00in /  0mm
10:24 27.9 °F /  -2.3 °C 17.7 °F /  -7.9 °C 30.26in /  1024.6hPa WNW 3.0mph /  4.8km/h 10.0mph /  16.1km/h 65% 0.00in /  0mm
10:29 27.9 °F /  -2.3 °C 17.7 °F /  -7.9 °C 30.26in /  1024.6hPa NW 3.0mph /  4.8km/h 8.0mph /  12.9km/h 65% 0.00in /  0mm
10:34 28.2 °F /  -2.1 °C 18.3 °F /  -7.6 °C 30.26in /  1024.6hPa WNW 1.0mph /  1.6km/h 8.0mph /  12.9km/h 66% 0.00in /  0mm
10:39 28.9 °F /  -1.7 °C 19.0 °F /  -7.2 °C 30.26in /  1024.6hPa WNW 2.0mph /  3.2km/h 4.0mph /  6.4km/h 66% 0.00in /  0mm
10:44 29.9 °F /  -1.2 °C 19.2 °F /  -7.1 °C 30.26in /  1024.6hPa NW 3.0mph /  4.8km/h 7.0mph /  11.3km/h 64% 0.00in /  0mm
10:49 30.5 °F /  -0.8 °C 18.7 °F /  -7.4 °C 30.25in /  1024.3hPa NW 4.0mph /  6.4km/h 7.0mph /  11.3km/h 61% 0.00in /  0mm
10:54 30.5 °F /  -0.8 °C 18.3 °F /  -7.6 °C 30.25in /  1024.3hPa NW 6.0mph /  9.7km/h 9.0mph /  14.5km/h 60% 0.00in /  0mm
10:59 30.2 °F /  -1 °C 18.7 °F /  -7.4 °C 30.25in /  1024.3hPa NW 3.0mph /  4.8km/h 9.0mph /  14.5km/h 62% 0.00in /  0mm
11:04 30.2 °F /  -1 °C 18.7 °F /  -7.4 °C 30.25in /  1024.3hPa NW 3.0mph /  4.8km/h 8.0mph /  12.9km/h 62% 0.00in /  0mm
11:09 29.9 °F /  -1.2 °C 17.7 °F /  -7.9 °C 30.25in /  1024.3hPa NNW 1.0mph /  1.6km/h 8.0mph /  12.9km/h 60% 0.00in /  0mm
11:14 29.7 °F /  -1.3 °C 17.5 °F /  -8.1 °C 30.25in /  1024.3hPa WNW 3.0mph /  4.8km/h 9.0mph /  14.5km/h 60% 0.00in /  0mm
11:19 29.4 °F /  -1.4 °C 16.4 °F /  -8.7 °C 30.25in /  1024.3hPa WNW 4.0mph /  6.4km/h 10.0mph /  16.1km/h 58% 0.00in /  0mm
11:24 29.4 °F /  -1.4 °C 16.0 °F /  -8.9 °C 30.24in /  1023.9hPa WSW 6.0mph /  9.7km/h 11.0mph /  17.7km/h 57% 0.00in /  0mm
11:29 29.2 °F /  -1.6 °C 16.7 °F /  -8.5 °C 30.25in /  1024.3hPa WNW 5.0mph /  8km/h 11.0mph /  17.7km/h 59% 0.00in /  0mm
11:34 28.8 °F /  -1.8 °C 15.9 °F /  -8.9 °C 30.25in /  1024.3hPa West 6.0mph /  9.7km/h 11.0mph /  17.7km/h 58% 0.00in /  0mm
11:39 28.4 °F /  -2 °C 15.9 °F /  -8.9 °C 30.24in /  1023.9hPa NW 6.0mph /  9.7km/h 11.0mph /  17.7km/h 59% 0.00in /  0mm
11:49 28.0 °F /  -2.2 °C 15.5 °F /  -9.2 °C 30.24in /  1023.9hPa NW 5.0mph /  8km/h 12.0mph /  19.3km/h 59% 0.00in /  0mm
11:54 28.0 °F /  -2.2 °C 16.3 °F /  -8.7 °C 30.24in /  1023.9hPa WNW 2.0mph /  3.2km/h 11.0mph /  17.7km/h 61% 0.00in /  0mm
11:59 27.8 °F /  -2.3 °C 15.7 °F /  -9.1 °C 30.24in /  1023.9hPa WNW 4.0mph /  6.4km/h 11.0mph /  17.7km/h 60% 0.00in /  0mm
12:04 27.7 °F /  -2.4 °C 15.6 °F /  -9.1 °C 30.24in /  1023.9hPa NW 5.0mph /  8km/h 11.0mph /  17.7km/h 60% 0.00in /  0mm
12:09 27.9 °F /  -2.3 °C 15.8 °F /  -9 °C 30.24in /  1023.9hPa NW 4.0mph /  6.4km/h 11.0mph /  17.7km/h 60% 0.00in /  0mm
12:14 28.0 °F /  -2.2 °C 15.9 °F /  -8.9 °C 30.23in /  1023.6hPa WNW 1.0mph /  1.6km/h 10.0mph /  16.1km/h 60% 0.00in /  0mm
12:19 28.2 °F /  -2.1 °C 16.1 °F /  -8.8 °C 30.24in /  1023.9hPa WNW 5.0mph /  8km/h 7.0mph /  11.3km/h 60% 0.00in /  0mm
12:24 28.9 °F /  -1.7 °C 16.0 °F /  -8.9 °C 30.24in /  1023.9hPa NW 6.0mph /  9.7km/h 10.0mph /  16.1km/h 58% 0.00in /  0mm
12:29 29.3 °F /  -1.5 °C 16.7 °F /  -8.5 °C 30.24in /  1023.9hPa WNW 6.0mph /  9.7km/h 10.0mph /  16.1km/h 59% 0.00in /  0mm
12:34 29.8 °F /  -1.2 °C 16.4 °F /  -8.7 °C 30.24in /  1023.9hPa WNW 4.0mph /  6.4km/h 10.0mph /  16.1km/h 57% 0.00in /  0mm
12:39 30.0 °F /  -1.1 °C 15.4 °F /  -9.2 °C 30.24in /  1023.9hPa WNW 7.0mph /  11.3km/h 13.0mph /  20.9km/h 54% 0.00in /  0mm
12:44 30.3 °F /  -0.9 °C 15.2 °F /  -9.3 °C 30.23in /  1023.6hPa WNW 3.0mph /  4.8km/h 13.0mph /  20.9km/h 53% 0.00in /  0mm
12:49 30.6 °F /  -0.8 °C 15.1 °F /  -9.4 °C 30.24in /  1023.9hPa WNW 5.0mph /  8km/h 12.0mph /  19.3km/h 52% 0.00in /  0mm
12:54 31.0 °F /  -0.6 °C 15.0 °F /  -9.4 °C 30.23in /  1023.6hPa NW 7.0mph /  11.3km/h 11.0mph /  17.7km/h 51% 0.00in /  0mm
12:59 30.7 °F /  -0.7 °C 14.7 °F /  -9.6 °C 30.23in /  1023.6hPa WNW 7.0mph /  11.3km/h 11.0mph /  17.7km/h 51% 0.00in /  0mm
13:04 31.3 °F /  -0.4 °C 15.3 °F /  -9.3 °C 30.23in /  1023.6hPa WNW 7.0mph /  11.3km/h 11.0mph /  17.7km/h 51% 0.00in /  0mm
13:09 31.7 °F /  -0.2 °C 15.6 °F /  -9.1 °C 30.23in /  1023.6hPa WNW 7.0mph /  11.3km/h 14.0mph /  22.5km/h 51% 0.00in /  0mm
13:14 31.6 °F /  -0.2 °C 14.6 °F /  -9.7 °C 30.23in /  1023.6hPa WSW 9.0mph /  14.5km/h 15.0mph /  24.1km/h 49% 0.00in /  0mm
13:19 31.3 °F /  -0.4 °C 14.8 °F /  -9.6 °C 30.23in /  1023.6hPa WSW 8.0mph /  12.9km/h 15.0mph /  24.1km/h 50% 0.00in /  0mm
13:24 31.5 °F /  -0.3 °C 15.9 °F /  -8.9 °C 30.23in /  1023.6hPa West 6.0mph /  9.7km/h 13.0mph /  20.9km/h 52% 0.00in /  0mm
13:29 31.6 °F /  -0.2 °C 15.5 °F /  -9.2 °C 30.23in /  1023.6hPa West 7.0mph /  11.3km/h 13.0mph /  20.9km/h 51% 0.00in /  0mm
13:34 31.8 °F /  -0.1 °C 15.7 °F /  -9.1 °C 30.23in /  1023.6hPa WNW 6.0mph /  9.7km/h 13.0mph /  20.9km/h 51% 0.00in /  0mm
13:39 32.0 °F /  0 °C 16.4 °F /  -8.7 °C 30.23in /  1023.6hPa NW 6.0mph /  9.7km/h 10.0mph /  16.1km/h 52% 0.00in /  0mm
13:44 32.0 °F /  0 °C 15.5 °F /  -9.2 °C 30.23in /  1023.6hPa WNW 7.0mph /  11.3km/h 13.0mph /  20.9km/h 50% 0.00in /  0mm
13:49 31.5 °F /  -0.3 °C 15.0 °F /  -9.4 °C 30.23in /  1023.6hPa WNW 8.0mph /  12.9km/h 13.0mph /  20.9km/h 50% 0.00in /  0mm
13:54 31.1 °F /  -0.5 °C 15.5 °F /  -9.2 °C 30.23in /  1023.6hPa WNW 7.0mph /  11.3km/h 12.0mph /  19.3km/h 52% 0.00in /  0mm
13:59 30.9 °F /  -0.6 °C 16.6 °F /  -8.6 °C 30.23in /  1023.6hPa NW 6.0mph /  9.7km/h 11.0mph /  17.7km/h 55% 0.00in /  0mm
14:04 30.4 °F /  -0.9 °C 16.6 °F /  -8.6 °C 30.23in /  1023.6hPa NW 2.0mph /  3.2km/h 10.0mph /  16.1km/h 56% 0.00in /  0mm
14:09 30.4 °F /  -0.9 °C 17.4 °F /  -8.1 °C 30.24in /  1023.9hPa NW 3.0mph /  4.8km/h 8.0mph /  12.9km/h 58% 0.00in /  0mm
14:14 30.6 °F /  -0.8 °C 17.2 °F /  -8.2 °C 30.24in /  1023.9hPa NW 4.0mph /  6.4km/h 13.0mph /  20.9km/h 57% 0.00in /  0mm
14:19 30.6 °F /  -0.8 °C 17.2 °F /  -8.2 °C 30.24in /  1023.9hPa NW 3.0mph /  4.8km/h 13.0mph /  20.9km/h 57% 0.00in /  0mm
14:24 30.9 °F /  -0.6 °C 17.5 °F /  -8.1 °C 30.24in /  1023.9hPa NW 3.0mph /  4.8km/h 10.0mph /  16.1km/h 57% 0.00in /  0mm
14:29 30.8 °F /  -0.7 °C 16.5 °F /  -8.6 °C 30.24in /  1023.9hPa NW 3.0mph /  4.8km/h 7.0mph /  11.3km/h 55% 0.00in /  0mm
14:34 30.9 °F /  -0.6 °C 16.2 °F /  -8.8 °C 30.24in /  1023.9hPa WNW 3.0mph /  4.8km/h 8.0mph /  12.9km/h 54% 0.00in /  0mm
14:39 31.0 °F /  -0.6 °C 15.4 °F /  -9.2 °C 30.25in /  1024.3hPa WNW 5.0mph /  8km/h 13.0mph /  20.9km/h 52% 0.00in /  0mm
14:44 31.2 °F /  -0.4 °C 14.7 °F /  -9.6 °C 30.24in /  1023.9hPa WNW 3.0mph /  4.8km/h 13.0mph /  20.9km/h 50% 0.00in /  0mm
14:49 30.8 °F /  -0.7 °C 12.9 °F /  -10.6 °C 30.25in /  1024.3hPa West 7.0mph /  11.3km/h 12.0mph /  19.3km/h 47% 0.00in /  0mm
14:54 30.1 °F /  -1.1 °C 12.8 °F /  -10.7 °C 30.25in /  1024.3hPa WNW 7.0mph /  11.3km/h 15.0mph /  24.1km/h 48% 0.00in /  0mm
14:59 29.9 °F /  -1.2 °C 13.1 °F /  -10.5 °C 30.25in /  1024.3hPa West 5.0mph /  8km/h 15.0mph /  24.1km/h 49% 0.00in /  0mm
15:04 29.8 °F /  -1.2 °C 12.5 °F /  -10.8 °C 30.25in /  1024.3hPa WNW 7.0mph /  11.3km/h 12.0mph /  19.3km/h 48% 0.00in /  0mm
15:09 29.4 °F /  -1.4 °C 12.1 °F /  -11.1 °C 30.25in /  1024.3hPa WNW 7.0mph /  11.3km/h 12.0mph /  19.3km/h 48% 0.00in /  0mm
15:14 29.4 °F /  -1.4 °C 12.6 °F /  -10.8 °C 30.25in /  1024.3hPa West 5.0mph /  8km/h 11.0mph /  17.7km/h 49% 0.00in /  0mm
15:19 29.5 °F /  -1.4 °C 12.2 °F /  -11 °C 30.25in /  1024.3hPa West 6.0mph /  9.7km/h 10.0mph /  16.1km/h 48% 0.00in /  0mm
15:24 29.3 °F /  -1.5 °C 12.5 °F /  -10.8 °C 30.25in /  1024.3hPa West 4.0mph /  6.4km/h 10.0mph /  16.1km/h 49% 0.00in /  0mm
15:29 29.0 °F /  -1.7 °C 12.7 °F /  -10.7 °C 30.25in /  1024.3hPa West 4.0mph /  6.4km/h 12.0mph /  19.3km/h 50% 0.00in /  0mm
15:34 28.7 °F /  -1.8 °C 12.8 °F /  -10.7 °C 30.26in /  1024.6hPa WNW 7.0mph /  11.3km/h 15.0mph /  24.1km/h 51% 0.00in /  0mm
15:39 28.4 °F /  -2 °C 12.6 °F /  -10.8 °C 30.26in /  1024.6hPa WNW 7.0mph /  11.3km/h 15.0mph /  24.1km/h 51% 0.00in /  0mm
15:44 28.2 °F /  -2.1 °C 12.8 °F /  -10.7 °C 30.26in /  1024.6hPa WNW 7.0mph /  11.3km/h 12.0mph /  19.3km/h 52% 0.00in /  0mm
15:49 27.9 °F /  -2.3 °C 13.0 °F /  -10.6 °C 30.26in /  1024.6hPa WNW 7.0mph /  11.3km/h 14.0mph /  22.5km/h 53% 0.00in /  0mm
15:54 27.7 °F /  -2.4 °C 12.8 °F /  -10.7 °C 30.26in /  1024.6hPa WNW 6.0mph /  9.7km/h 14.0mph /  22.5km/h 53% 0.00in /  0mm
15:59 27.5 °F /  -2.5 °C 13.0 °F /  -10.6 °C 30.27in /  1024.9hPa West 2.0mph /  3.2km/h 10.0mph /  16.1km/h 54% 0.00in /  0mm
16:04 27.1 °F /  -2.7 °C 12.2 °F /  -11 °C 30.27in /  1024.9hPa WNW 1.0mph /  1.6km/h 7.0mph /  11.3km/h 53% 0.00in /  0mm
16:09 26.8 °F /  -2.9 °C 12.0 °F /  -11.1 °C 30.27in /  1024.9hPa NW 4.0mph /  6.4km/h 7.0mph /  11.3km/h 53% 0.00in /  0mm
16:14 26.4 °F /  -3.1 °C 12.0 °F /  -11.1 °C 30.27in /  1024.9hPa Calm   7.0mph /  11.3km/h 54% 0.00in /  0mm
16:19 26.2 °F /  -3.2 °C 11.8 °F /  -11.2 °C 30.27in /  1024.9hPa WNW 5.0mph /  8km/h 10.0mph /  16.1km/h 54% 0.00in /  0mm
16:24 26.3 °F /  -3.2 °C 11.9 °F /  -11.2 °C 30.27in /  1024.9hPa WNW 3.0mph /  4.8km/h 10.0mph /  16.1km/h 54% 0.00in /  0mm
16:29 26.2 °F /  -3.2 °C 12.2 °F /  -11 °C 30.27in /  1024.9hPa WNW 2.0mph /  3.2km/h 9.0mph /  14.5km/h 55% 0.00in /  0mm
16:34 26.0 °F /  -3.3 °C 12.0 °F /  -11.1 °C 30.28in /  1025.3hPa WNW 4.0mph /  6.4km/h 8.0mph /  12.9km/h 55% 0.00in /  0mm
16:44 25.9 °F /  -3.4 °C 11.1 °F /  -11.6 °C 30.28in /  1025.3hPa West 5.0mph /  8km/h 14.0mph /  22.5km/h 53% 0.00in /  0mm
16:49 25.6 °F /  -3.6 °C 10.8 °F /  -11.8 °C 30.28in /  1025.3hPa West 3.0mph /  4.8km/h 9.0mph /  14.5km/h 53% 0.00in /  0mm
16:54 25.4 °F /  -3.7 °C 11.1 °F /  -11.6 °C 30.28in /  1025.3hPa West 4.0mph /  6.4km/h 9.0mph /  14.5km/h 54% 0.00in /  0mm
16:59 25.2 °F /  -3.8 °C 11.3 °F /  -11.5 °C 30.28in /  1025.3hPa WNW 4.0mph /  6.4km/h 11.0mph /  17.7km/h 55% 0.00in /  0mm
17:04 25.1 °F /  -3.8 °C 11.2 °F /  -11.6 °C 30.28in /  1025.3hPa West 4.0mph /  6.4km/h 11.0mph /  17.7km/h 55% 0.00in /  0mm
17:09 25.2 °F /  -3.8 °C 11.3 °F /  -11.5 °C 30.29in /  1025.6hPa West 5.0mph /  8km/h 10.0mph /  16.1km/h 55% 0.00in /  0mm
17:14 25.1 °F /  -3.8 °C 11.6 °F /  -11.3 °C 30.29in /  1025.6hPa West 5.0mph /  8km/h 10.0mph /  16.1km/h 56% 0.00in /  0mm
17:19 24.8 °F /  -4 °C 11.7 °F /  -11.3 °C 30.29in /  1025.6hPa West 2.0mph /  3.2km/h 9.0mph /  14.5km/h 57% 0.00in /  0mm
17:24 25.0 °F /  -3.9 °C 11.9 °F /  -11.2 °C 30.29in /  1025.6hPa West 4.0mph /  6.4km/h 11.0mph /  17.7km/h 57% 0.00in /  0mm
17:29 25.0 °F /  -3.9 °C 11.9 °F /  -11.2 °C 30.29in /  1025.6hPa West 3.0mph /  4.8km/h 11.0mph /  17.7km/h 57% 0.00in /  0mm
17:34 24.9 °F /  -3.9 °C 11.8 °F /  -11.2 °C 30.29in /  1025.6hPa West 4.0mph /  6.4km/h 9.0mph /  14.5km/h 57% 0.00in /  0mm
17:39 24.8 °F /  -4 °C 11.7 °F /  -11.3 °C 30.29in /  1025.6hPa West 4.0mph /  6.4km/h 9.0mph /  14.5km/h 57% 0.00in /  0mm
17:44 24.6 °F /  -4.1 °C 11.9 °F /  -11.2 °C 30.29in /  1025.6hPa West 3.0mph /  4.8km/h 9.0mph /  14.5km/h 58% 0.00in /  0mm
17:49 24.6 °F /  -4.1 °C 11.9 °F /  -11.2 °C 30.29in /  1025.6hPa WNW 3.0mph /  4.8km/h 8.0mph /  12.9km/h 58% 0.00in /  0mm
17:54 24.4 °F /  -4.2 °C 12.1 °F /  -11.1 °C 30.29in /  1025.6hPa West 3.0mph /  4.8km/h 8.0mph /  12.9km/h 59% 0.00in /  0mm
17:59 23.9 °F /  -4.5 °C 12.0 °F /  -11.1 °C 30.29in /  1025.6hPa West 1.0mph /  1.6km/h 6.0mph /  9.7km/h 60% 0.00in /  0mm
18:04 24.1 °F /  -4.4 °C 12.2 °F /  -11 °C 30.30in /  1026hPa West 2.0mph /  3.2km/h 8.0mph /  12.9km/h 60% 0.00in /  0mm
18:09 24.0 °F /  -4.4 °C 12.1 °F /  -11.1 °C 30.30in /  1026hPa West 3.0mph /  4.8km/h 8.0mph /  12.9km/h 60% 0.00in /  0mm
18:14 24.2 °F /  -4.3 °C 12.3 °F /  -10.9 °C 30.30in /  1026hPa West 5.0mph /  8km/h 8.0mph /  12.9km/h 60% 0.00in /  0mm
18:19 24.5 °F /  -4.2 °C 12.6 °F /  -10.8 °C 30.30in /  1026hPa WNW 2.0mph /  3.2km/h 8.0mph /  12.9km/h 60% 0.00in /  0mm
18:24 24.5 °F /  -4.2 °C 12.6 °F /  -10.8 °C 30.30in /  1026hPa West 3.0mph /  4.8km/h 8.0mph /  12.9km/h 60% 0.00in /  0mm
18:29 24.2 °F /  -4.3 °C 12.7 °F /  -10.7 °C 30.30in /  1026hPa WNW 1.0mph /  1.6km/h 6.0mph /  9.7km/h 61% 0.00in /  0mm
18:34 23.9 °F /  -4.5 °C 12.8 °F /  -10.7 °C 30.30in /  1026hPa West 4.0mph /  6.4km/h 7.0mph /  11.3km/h 62% 0.00in /  0mm
18:39 24.0 °F /  -4.4 °C 12.9 °F /  -10.6 °C 30.30in /  1026hPa West 1.0mph /  1.6km/h 7.0mph /  11.3km/h 62% 0.00in /  0mm
18:44 23.7 °F /  -4.6 °C 12.6 °F /  -10.8 °C 30.30in /  1026hPa West 2.0mph /  3.2km/h 6.0mph /  9.7km/h 62% 0.00in /  0mm
18:49 23.6 °F /  -4.7 °C 12.5 °F /  -10.8 °C 30.31in /  1026.3hPa West 1.0mph /  1.6km/h 6.0mph /  9.7km/h 62% 0.00in /  0mm
18:54 23.6 °F /  -4.7 °C 12.5 °F /  -10.8 °C 30.31in /  1026.3hPa West 2.0mph /  3.2km/h 6.0mph /  9.7km/h 62% 0.00in /  0mm
18:59 23.5 °F /  -4.7 °C 12.4 °F /  -10.9 °C 30.31in /  1026.3hPa West 2.0mph /  3.2km/h 6.0mph /  9.7km/h 62% 0.00in /  0mm
19:04 23.6 °F /  -4.7 °C 12.5 °F /  -10.8 °C 30.32in /  1026.6hPa WSW 1.0mph /  1.6km/h 6.0mph /  9.7km/h 62% 0.00in /  0mm
19:09 23.5 °F /  -4.7 °C 12.8 °F /  -10.7 °C 30.32in /  1026.6hPa WSW 1.0mph /  1.6km/h 6.0mph /  9.7km/h 63% 0.00in /  0mm
19:14 23.6 °F /  -4.7 °C 12.9 °F /  -10.6 °C 30.32in /  1026.6hPa Calm   5.0mph /  8km/h 63% 0.00in /  0mm
19:19 23.6 °F /  -4.7 °C 13.2 °F /  -10.4 °C 30.32in /  1026.6hPa West 4.0mph /  6.4km/h 8.0mph /  12.9km/h 64% 0.00in /  0mm
19:24 24.0 °F /  -4.4 °C 13.2 °F /  -10.4 °C 30.33in /  1027hPa West 2.0mph /  3.2km/h 8.0mph /  12.9km/h 63% 0.00in /  0mm
19:34 24.5 °F /  -4.2 °C 13.3 °F /  -10.4 °C 30.33in /  1027hPa Calm   8.0mph /  12.9km/h 62% 0.00in /  0mm
19:39 24.7 °F /  -4.1 °C 13.5 °F /  -10.3 °C 30.32in /  1026.6hPa West 4.0mph /  6.4km/h 8.0mph /  12.9km/h 62% 0.00in /  0mm
19:44 25.0 °F /  -3.9 °C 13.8 °F /  -10.1 °C 30.33in /  1027hPa West 3.0mph /  4.8km/h 8.0mph /  12.9km/h 62% 0.00in /  0mm
19:49 25.1 °F /  -3.8 °C 13.9 °F /  -10.1 °C 30.33in /  1027hPa WSW 4.0mph /  6.4km/h 7.0mph /  11.3km/h 62% 0.00in /  0mm
19:54 25.1 °F /  -3.8 °C 13.9 °F /  -10.1 °C 30.33in /  1027hPa WSW 2.0mph /  3.2km/h 6.0mph /  9.7km/h 62% 0.00in /  0mm
19:59 25.1 °F /  -3.8 °C 14.3 °F /  -9.8 °C 30.33in /  1027hPa Calm   6.0mph /  9.7km/h 63% 0.00in /  0mm
20:04 25.0 °F /  -3.9 °C 14.2 °F /  -9.9 °C 30.33in /  1027hPa West 2.0mph /  3.2km/h 7.0mph /  11.3km/h 63% 0.00in /  0mm
20:09 25.0 °F /  -3.9 °C 14.2 °F /  -9.9 °C 30.33in /  1027hPa WSW 3.0mph /  4.8km/h 7.0mph /  11.3km/h 63% 0.00in /  0mm
20:14 25.0 °F /  -3.9 °C 14.2 °F /  -9.9 °C 30.33in /  1027hPa WSW 4.0mph /  6.4km/h 8.0mph /  12.9km/h 63% 0.00in /  0mm
20:19 24.8 °F /  -4 °C 14.0 °F /  -10 °C 30.34in /  1027.3hPa WNW 1.0mph /  1.6km/h 8.0mph /  12.9km/h 63% 0.00in /  0mm
20:24 24.4 °F /  -4.2 °C 13.6 °F /  -10.2 °C 30.34in /  1027.3hPa Calm   4.0mph /  6.4km/h 63% 0.00in /  0mm
20:29 23.9 °F /  -4.5 °C 13.5 °F /  -10.3 °C 30.34in /  1027.3hPa WNW 2.0mph /  3.2km/h 4.0mph /  6.4km/h 64% 0.00in /  0mm
20:34 23.5 °F /  -4.7 °C 13.5 °F /  -10.3 °C 30.34in /  1027.3hPa West 2.0mph /  3.2km/h 5.0mph /  8km/h 65% 0.00in /  0mm
20:39 23.4 °F /  -4.8 °C 13.4 °F /  -10.3 °C 30.34in /  1027.3hPa West 2.0mph /  3.2km/h 7.0mph /  11.3km/h 65% 0.00in /  0mm
20:44 23.5 °F /  -4.7 °C 13.5 °F /  -10.3 °C 30.34in /  1027.3hPa WSW 2.0mph /  3.2km/h 7.0mph /  11.3km/h 65% 0.00in /  0mm
20:49 23.3 °F /  -4.8 °C 13.3 °F /  -10.4 °C 30.34in /  1027.3hPa WSW 3.0mph /  4.8km/h 7.0mph /  11.3km/h 65% 0.00in /  0mm
20:54 23.2 °F /  -4.9 °C 13.5 °F /  -10.3 °C 30.35in /  1027.7hPa WSW 1.0mph /  1.6km/h 6.0mph /  9.7km/h 66% 0.00in /  0mm
20:59 23.4 °F /  -4.8 °C 13.4 °F /  -10.3 °C 30.35in /  1027.7hPa West 2.0mph /  3.2km/h 8.0mph /  12.9km/h 65% 0.00in /  0mm
21:04 23.4 °F /  -4.8 °C 13.4 °F /  -10.3 °C 30.35in /  1027.7hPa Calm   8.0mph /  12.9km/h 65% 0.00in /  0mm
21:09 23.2 °F /  -4.9 °C 13.2 °F /  -10.4 °C 30.35in /  1027.7hPa SW 2.0mph /  3.2km/h 5.0mph /  8km/h 65% 0.00in /  0mm
21:14 23.3 °F /  -4.8 °C 13.3 °F /  -10.4 °C 30.35in /  1027.7hPa Calm   5.0mph /  8km/h 65% 0.00in /  0mm
21:19 23.0 °F /  -5 °C 13.0 °F /  -10.6 °C 30.35in /  1027.7hPa Calm   5.0mph /  8km/h 65% 0.00in /  0mm
21:24 22.4 °F /  -5.3 °C 12.8 °F /  -10.7 °C 30.35in /  1027.7hPa Calm     66% 0.00in /  0mm
21:29 22.1 °F /  -5.5 °C 12.8 °F /  -10.7 °C 30.35in /  1027.7hPa Calm   4.0mph /  6.4km/h 67% 0.00in /  0mm
21:34 21.8 °F /  -5.7 °C 12.9 °F /  -10.6 °C 30.35in /  1027.7hPa Calm   4.0mph /  6.4km/h 68% 0.00in /  0mm
21:39 21.6 °F /  -5.8 °C 13.0 °F /  -10.6 °C 30.35in /  1027.7hPa Calm   4.0mph /  6.4km/h 69% 0.00in /  0mm
21:44 21.9 °F /  -5.6 °C 13.3 °F /  -10.4 °C 30.36in /  1028hPa Calm   5.0mph /  8km/h 69% 0.00in /  0mm
21:49 22.2 °F /  -5.4 °C 13.9 °F /  -10.1 °C 30.36in /  1028hPa West 2.0mph /  3.2km/h 6.0mph /  9.7km/h 70% 0.00in /  0mm
21:54 23.0 °F /  -5 °C 14.3 °F /  -9.8 °C 30.36in /  1028hPa West 3.0mph /  4.8km/h 6.0mph /  9.7km/h 69% 0.00in /  0mm
21:59 23.6 °F /  -4.7 °C 14.6 °F /  -9.7 °C 30.36in /  1028hPa West 1.0mph /  1.6km/h 6.0mph /  9.7km/h 68% 0.00in /  0mm
22:04 23.7 °F /  -4.6 °C 14.3 °F /  -9.8 °C 30.36in /  1028hPa Calm   4.0mph /  6.4km/h 67% 0.00in /  0mm
22:09 23.5 °F /  -4.7 °C 14.2 °F /  -9.9 °C 30.36in /  1028hPa West 2.0mph /  3.2km/h 6.0mph /  9.7km/h 67% 0.00in /  0mm
22:14 23.5 °F /  -4.7 °C 14.2 °F /  -9.9 °C 30.36in /  1028hPa Calm   6.0mph /  9.7km/h 67% 0.00in /  0mm
22:19 23.3 °F /  -4.8 °C 14.3 °F /  -9.8 °C 30.36in /  1028hPa West 3.0mph /  4.8km/h 7.0mph /  11.3km/h 68% 0.00in /  0mm
22:24 23.6 °F /  -4.7 °C 14.6 °F /  -9.7 °C 30.36in /  1028hPa West 2.0mph /  3.2km/h 9.0mph /  14.5km/h 68% 0.00in /  0mm
22:29 23.8 °F /  -4.6 °C 14.4 °F /  -9.8 °C 30.36in /  1028hPa Calm   9.0mph /  14.5km/h 67% 0.00in /  0mm
22:34 23.8 °F /  -4.6 °C 14.4 °F /  -9.8 °C 30.37in /  1028.3hPa WSW 3.0mph /  4.8km/h 7.0mph /  11.3km/h 67% 0.00in /  0mm
22:39 23.9 °F /  -4.5 °C 14.5 °F /  -9.7 °C 30.37in /  1028.3hPa WSW 2.0mph /  3.2km/h 7.0mph /  11.3km/h 67% 0.00in /  0mm
22:44 24.0 °F /  -4.4 °C 14.6 °F /  -9.7 °C 30.37in /  1028.3hPa WSW 1.0mph /  1.6km/h 5.0mph /  8km/h 67% 0.00in /  0mm
22:49 24.0 °F /  -4.4 °C 14.6 °F /  -9.7 °C 30.37in /  1028.3hPa WSW 2.0mph /  3.2km/h 5.0mph /  8km/h 67% 0.00in /  0mm
22:54 24.0 °F /  -4.4 °C 14.6 °F /  -9.7 °C 30.37in /  1028.3hPa Calm   5.0mph /  8km/h 67% 0.00in /  0mm
22:59 24.0 °F /  -4.4 °C 14.6 °F /  -9.7 °C 30.37in /  1028.3hPa WSW 2.0mph /  3.2km/h 6.0mph /  9.7km/h 67% 0.00in /  0mm
23:04 24.0 °F /  -4.4 °C 14.3 °F /  -9.8 °C 30.38in /  1028.7hPa WSW 2.0mph /  3.2km/h 8.0mph /  12.9km/h 66% 0.00in /  0mm
23:09 23.9 °F /  -4.5 °C 14.2 °F /  -9.9 °C 30.38in /  1028.7hPa West 1.0mph /  1.6km/h 8.0mph /  12.9km/h 66% 0.00in /  0mm
23:14 23.8 °F /  -4.6 °C 14.4 °F /  -9.8 °C 30.38in /  1028.7hPa West 1.0mph /  1.6km/h 4.0mph /  6.4km/h 67% 0.00in /  0mm
23:19 23.9 °F /  -4.5 °C 14.5 °F /  -9.7 °C 30.38in /  1028.7hPa WSW 4.0mph /  6.4km/h 7.0mph /  11.3km/h 67% 0.00in /  0mm
23:24 24.1 °F /  -4.4 °C 14.7 °F /  -9.6 °C 30.38in /  1028.7hPa WSW 3.0mph /  4.8km/h 7.0mph /  11.3km/h 67% 0.00in /  0mm
23:29 24.2 °F /  -4.3 °C 14.8 °F /  -9.6 °C 30.38in /  1028.7hPa West 3.0mph /  4.8km/h 6.0mph /  9.7km/h 67% 0.00in /  0mm
23:34 24.2 °F /  -4.3 °C 14.8 °F /  -9.6 °C 30.38in /  1028.7hPa Calm   6.0mph /  9.7km/h 67% 0.00in /  0mm
23:39 24.1 °F /  -4.4 °C 14.7 °F /  -9.6 °C 30.38in /  1028.7hPa Calm   4.0mph /  6.4km/h 67% 0.00in /  0mm
23:44 24.0 °F /  -4.4 °C 14.6 °F /  -9.7 °C 30.38in /  1028.7hPa WSW 1.0mph /  1.6km/h 6.0mph /  9.7km/h 67% 0.00in /  0mm
23:49 24.1 °F /  -4.4 °C 14.7 °F /  -9.6 °C 30.38in /  1028.7hPa Calm   6.0mph /  9.7km/h 67% 0.00in /  0mm
23:54 23.9 °F /  -4.5 °C 14.5 °F /  -9.7 °C 30.38in /  1028.7hPa Calm   6.0mph /  9.7km/h 67% 0.00in /  0mm
23:59 23.5 °F /  -4.7 °C 14.5 °F /  -9.7 °C 30.38in /  1028.7hPa West 1.0mph /  1.6km/h 4.0mph /  6.4km/h 68% 0.00in /  0mm
Westford Weather
Compliments of Weather Underground

 
 
Current Radar Loop:

Copyright © WestfordWeather.net 2007-2014. All rights reserved.